• Join FlightAware (Why Join?)
  • Login
  • US Flag 
03:10PM EDT


 

Airport Tracker/Info


-or-


 

Live Flight TrackerFlight Track Log ✈ EJA831 ✈ 10-Dec-2013 ✈ KSTL - KDAY

Flight Track Log - Related Links

Times and Time Zones

All times are in EST time to prevent confusion due to time zone crossing. See the EJA831 flight status page for this flight to view local times or setup timezone preferences in your user account.

Time Position Orientation Groundspeed Altitude Reporting Facility
EST Latitude Longitude Course Direction KTS MPH feet Rate Location/Type
09:24AM 38.7500 -90.3667 327° Northwest 162 186 1,600  Level Gateway (St. Louis) TRACON
09:25AM 38.7731 -90.3856 327° Northwest 169 194 3,900 3,600 Climbing Kansas City Center
09:26AM 38.8344 -90.3700 11° North 266 306 8,000 4,920 Climbing Kansas City Center
09:27AM 38.8411 -90.2267 87° East 326 375 14,100 4,500 Climbing Kansas City Center
09:28AM 38.8300 -90.0847 96° East 383 441 17,200 3,240 Climbing Kansas City Center
09:29AM 38.8206 -89.9275 94° East 423 487 20,700 2,760 Climbing Kansas City Center
09:30AM 38.8103 -89.7689 95° East 437 503 23,000 1,800 Climbing Kansas City Center
09:31AM 38.7983 -89.5956 95° East 468 539 24,500 1,620 Climbing Kansas City Center
09:32AM 38.8025 -89.4283 88° East 487 560 26,300 1,200 Climbing Kansas City Center
09:33AM 38.8253 -89.2492 81° East 509 586 27,000 300 Climbing Kansas City Center
09:34AM 38.8550 -89.0622 78° East 533 613 27,000  Level Kansas City Center
09:35AM 38.9078 -88.8836 69° East 536 617 27,000  Level Kansas City Center
09:36AM 38.9622 -88.6667 72° East 535 616 27,000  Level Kansas City Center
09:37AM 39.0047 -88.4944 72° East 536 617 27,000  Level Kansas City Center
09:38AM 39.0497 -88.3133 72° East 531 611 27,000  Level Kansas City Center
09:39AM 39.0939 -88.1322 73° East 528 608 27,000  Level Kansas City Center
09:40AM 39.1356 -87.9553 73° East 526 605 27,000  Level Indianapolis Center
09:42AM 39.1789 -87.7764 73° East 522 601 27,000  Level Indianapolis Center
09:43AM 39.2317 -87.5569 73° East 525 604 27,000  Level Indianapolis Center
09:44AM 39.2756 -87.3742 73° East 528 608 27,000  Level Indianapolis Center
09:45AM 39.3189 -87.1919 73° East 527 606 27,000  Level Indianapolis Center
09:46AM 39.3619 -87.0094 73° East 527 606 27,000  Level Indianapolis Center
09:47AM 39.4036 -86.8261 74° East 527 606 27,000  Level Indianapolis Center
09:48AM 39.4472 -86.6433 73° East 528 608 27,000  Level Indianapolis Center
09:49AM 39.4892 -86.4594 73° East 528 608 27,000  Level Indianapolis Center
09:50AM 39.5314 -86.2742 73° East 532 612 27,000 -60 Level Indianapolis Center
09:51AM 39.5736 -86.0883 74° East 534 615 26,900 -840 Descending Indianapolis Center
09:52AM 39.6142 -85.9036 74° East 531 611 25,300 -1,800 Descending Indianapolis Center
09:53AM 39.6328 -85.7322 82° East 498 573 23,300 -1,980 Descending Indianapolis Center
09:54AM 39.6319 -85.5611 90° East 471 542 21,300 -1,980 Descending Indianapolis Center
09:55AM 39.6253 -85.3994 93° East 457 526 19,300 -2,520 Descending Indianapolis Center
09:55AM 39.6258 -85.3236 89° East 427 491 17,900 -2,640 Descending Indianapolis Center
09:56AM 39.6486 -85.2253 73° East 434 499 16,600 -1,920 Descending Indianapolis Center
09:57AM 39.6744 -85.1394 69° East 406 467 15,400 -1,980 Descending Indianapolis Center
09:57AM 39.6903 -85.0872 68° East 418 481 14,600 -2,040 Descending Indianapolis Center
09:58AM 39.7214 -84.9656 72° East 385 443 12,800 -1,860 Descending Indianapolis Center
09:58AM 39.7236 -84.9547 75° East 396 456 12,700 -1,800 Descending Indianapolis Center
09:59AM 39.7508 -84.8539 71° East 354 407 11,200 -1,800 Descending Indianapolis Center
09:59AM 39.7572 -84.8342 67° East 370 426 10,900 -1,620 Descending Indianapolis Center
10:00AM 39.7919 -84.7497 62° Northeast 315 362 9,600 -1,620 Descending Indianapolis Center
10:00AM 39.7975 -84.7328 67° East 339 390 9,300 -1,680 Descending Indianapolis Center
10:01AM 39.8317 -84.6586 59° Northeast 306 352 8,100 -1,560 Descending Indianapolis Center
10:01AM 39.8425 -84.6369 57° Northeast 321 369 7,700 -1,560 Descending Indianapolis Center
10:02AM 39.8781 -84.5606 59° Northeast 291 335 6,400 -1,560 Descending Indianapolis Center
10:02AM 39.8850 -84.5472 56° Northeast 306 352 6,100 -420 Descending Indianapolis Center
10:03AM 39.9219 -84.4675 59° Northeast 254 292 6,000 -120 Descending Indianapolis Center
10:03AM 39.9306 -84.4506 56° Northeast 281 323 6,000  Level Indianapolis Center
10:04AM 39.9550 -84.3944 60° Northeast 247 284 6,000  Level Indianapolis Center
10:04AM 39.9669 -84.3728 54° Northeast 263 303 6,000 -600 Level Indianapolis Center
10:05AM 39.9908 -84.3161 61° Northeast 251 289 5,400 -1,140 Descending Indianapolis Center
10:05AM 40.0003 -84.2936 61° Northeast 256 295 4,900 -1,500 Descending Indianapolis Center
10:06AM 40.0031 -84.2417 86° East 245 282 4,100 -1,140 Descending Indianapolis Center
10:06AM 40.0072 -84.2069 81° East 249 287 3,800 -1,020 Descending Indianapolis Center
10:07AM 40.0031 -84.1622 97° East 220 253 3,100 -1,200 Descending Indianapolis Center
10:07AM 39.9861 -84.1417 137° Southeast 225 259 2,600 -420 Descending Indianapolis Center
10:08AM 39.9525 -84.1383 176° South 183 211 2,500 -360 Descending Indianapolis Center
10:09AM 39.9400 -84.1619 235° Southwest 104 120 2,100 -600 Descending Indianapolis Center
10:09AM 39.9350 -84.1700 231° Southwest 133 153 1,900 -600 Descending Indianapolis Center
10:10AM 39.9242 -84.1919 237° Southwest 100 115 1,500 -300 Descending Indianapolis Center
10:10AM 39.9150 -84.2069 231° Southwest 123 142 1,600 180 Climbing Indianapolis Center